Valentina — V2GV6 — position and weather

sailwx.info

Track history (hours):
 
Tides and Currents Weather Stations Pressure Air Temp Water Temp Dewpoint Dewpoint Depression Visibility Wind Speed Wind Dir Waves Ship Positions

Valentina

Last reported at 2018-Jul-17 01:24 UTC. Time now 2018-Jul-17 13:13 UTC.
Position N 35°58' W 005°47'.

Length 95 m; draft 6.3 m.

Type: Cargo ship. MMSI: 305330000.

Date/timePositionNaut miles runAvg speedWind from/ knotsBaromVisibWave heightAir tempDewpointWater temp
2018-Jul-17 01:24N 35°58' W 005°47'511.7
2018-Jul-17 01:00N 35°58' W 005°41'5 9.4
2018-Jul-17 00:30N 35°58' W 005°36'7 7.5
2018-Jul-16 23:30N 36°00' W 005°27'3 6.2
2018-Jul-16 23:00N 36°01' W 005°23'3 5.3
2018-Jul-16 22:30N 36°02' W 005°20'3 5.1
2018-Jul-16 22:00N 36°02' W 005°17'3 5.6
2018-Jul-16 21:30N 36°02' W 005°13'4 7.0
2018-Jul-16 21:00N 36°03' W 005°09'4 7.7
2018-Jul-16 20:27N 36°04' W 005°04'  
2018-Jul-14 10:10N 36°01' W 004°59'313.2
2018-Jul-14 09:57N 36°01' W 005°03'612.8
2018-Jul-14 09:30N 35°60' W 005°10'612.5
2018-Jul-14 09:00N 35°59' W 005°17'713.2
2018-Jul-14 08:30N 35°58' W 005°25'2813.4
2018-Jul-14 06:24N 35°55' W 005°60'3510.0
2018-Jul-14 02:56N 36°22' W 006°27'511.4
2018-Jul-14 02:30N 36°26' W 006°29'711.5
2018-Jul-14 01:55N 36°33' W 006°32'  
2018-Jul-11 16:37N 36°46' W 006°28'1 4.3
2018-Jul-11 16:22N 36°46' W 006°30'4 9.7
2018-Jul-11 15:54N 36°46' W 006°35'410.2
2018-Jul-11 15:30N 36°45' W 006°40'13310.1
2018-Jul-11 02:23N 36°42' W 009°26'410.5
2018-Jul-11 02:00N 36°45' W 009°29'510.0
2018-Jul-11 01:29N 36°50' W 009°32'510.2
2018-Jul-11 01:00N 36°55' W 009°34'510.3
2018-Jul-11 00:30N 36°60' W 009°35'610.4
2018-Jul-10 23:54N 37°06' W 009°37'410.6
2018-Jul-10 23:29N 37°10' W 009°38'510.6
2018-Jul-10 23:00N 37°15' W 009°40'610.5
2018-Jul-10 22:28N 37°20' W 009°41'510.5
2018-Jul-10 21:59N 37°25' W 009°42'510.5
2018-Jul-10 21:30N 37°30' W 009°44'510.8
2018-Jul-10 21:00N 37°36' W 009°46'510.7
2018-Jul-10 20:30N 37°41' W 009°47'510.7
2018-Jul-10 20:00N 37°46' W 009°49'510.7
2018-Jul-10 19:29N 37°51' W 009°50'510.4
2018-Jul-10 19:00N 37°56' W 009°51'510.3
2018-Jul-10 18:30N 38°01' W 009°53'510.4
2018-Jul-10 18:00N 38°06' W 009°54'510.1
2018-Jul-10 17:30N 38°11' W 009°56'510.3
2018-Jul-10 17:00N 38°16' W 009°57'510.5
2018-Jul-10 16:30N 38°22' W 009°59'510.6
2018-Jul-10 16:00N 38°27' W 010°00'510.3
2018-Jul-10 15:30N 38°32' W 010°02'510.1
2018-Jul-10 15:00N 38°37' W 010°04'510.0
2018-Jul-10 14:30N 38°41' W 010°05'510.0
2018-Jul-10 14:00N 38°46' W 010°06'510.2
2018-Jul-10 13:30N 38°51' W 010°05'510.3
2018-Jul-10 13:00N 38°57' W 010°05'510.2
2018-Jul-10 12:30N 39°02' W 010°05'7 9.8
2018-Jul-10 11:50N 39°08' W 010°05'310.0
2018-Jul-10 11:30N 39°12' W 010°05'510.3
2018-Jul-10 11:00N 39°17' W 010°06'510.5
2018-Jul-10 10:29N 39°22' W 010°06'3610.2
2018-Jul-10 06:56N 39°58' W 010°05'7 9.3
2018-Jul-10 06:14N 40°05' W 010°05'2 9.4
2018-Jul-10 05:59N 40°07' W 010°05'  
2018-Jul-08 01:40N 48°18' W 006°14'510.7
2018-Jul-08 01:14N 48°22' W 006°10'210.8
2018-Jul-08 01:00N 48°24' W 006°09'510.5
2018-Jul-08 00:30N 48°29' W 006°05'510.1
2018-Jul-08 00:00N 48°34' W 006°01'510.4
2018-Jul-07 23:30N 48°38' W 005°57'510.0
2018-Jul-07 23:00N 48°43' W 005°54'5 9.6
2018-Jul-07 22:30N 48°47' W 005°51'5 9.8
2018-Jul-07 22:00N 48°51' W 005°47'5 9.3
2018-Jul-07 21:30N 48°54' W 005°42'5 9.7
2018-Jul-07 21:00N 48°57' W 005°36'5 9.8
2018-Jul-07 20:30N 49°00' W 005°30'5 9.9
2018-Jul-07 20:00N 49°03' W 005°24'510.2
2018-Jul-07 19:30N 49°05' W 005°17'510.5
2018-Jul-07 19:00N 49°08' W 005°10'910.5
2018-Jul-07 18:10N 49°12' W 004°58'210.9
2018-Jul-07 18:00N 49°13' W 004°56'4610.6
2018-Jul-07 13:41N 49°36' W 003°55'4 9.7
2018-Jul-07 13:17N 49°38' W 003°50'18 9.4
2018-Jul-07 11:25N 49°46' W 003°26'4 9.8
2018-Jul-07 10:58N 49°49' W 003°20'510.2
2018-Jul-07 10:30N 49°51' W 003°14'510.5
2018-Jul-07 09:59N 49°54' W 003°06'510.7
2018-Jul-07 09:30N 49°56' W 002°59'611.0
2018-Jul-07 09:00N 49°58' W 002°51'611.5
2018-Jul-07 08:30N 49°60' W 002°43'611.9
2018-Jul-07 08:00N 50°01' W 002°34'611.8
2018-Jul-07 07:30N 50°02' W 002°25'611.5
2018-Jul-07 06:58N 49°60' W 002°15'511.7
2018-Jul-07 06:30N 49°58' W 002°07'611.3
2018-Jul-07 05:58N 49°57' W 001°58'510.9
2018-Jul-07 05:28N 49°55' W 001°50'510.6
2018-Jul-07 05:00N 49°54' W 001°43'510.0
2018-Jul-07 04:30N 49°52' W 001°35'5 9.5
2018-Jul-07 04:00N 49°51' W 001°28'4 8.7
2018-Jul-07 03:30N 49°50' W 001°22'4 7.5
2018-Jul-07 03:00N 49°48' W 001°17'4 7.3
2018-Jul-07 02:30N 49°46' W 001°12'4 7.6
2018-Jul-07 02:00N 49°46' W 001°06'4 7.5
2018-Jul-07 01:30N 49°44' W 001°01'  
Track history (hours):
 
Tides and Currents Weather Stations Pressure Air Temp Water Temp Dewpoint Dewpoint Depression Visibility Wind Speed Wind Dir Waves Ship Positions

Valentina

Last reported at 2018-Jul-17 01:24 UTC. Time now 2018-Jul-17 13:13 UTC.
Position N 35°58' W 005°47'.

Length 95 m; draft 6.3 m.

Type: Cargo ship. MMSI: 305330000.

Date/timePositionNaut miles runAvg speedWind from/ knotsBaromVisibWave heightAir tempDewpointWater temp
2018-Jul-17 01:24N 35°58' W 005°47'511.7
2018-Jul-17 01:00N 35°58' W 005°41'5 9.4
2018-Jul-17 00:30N 35°58' W 005°36'7 7.5
2018-Jul-16 23:30N 36°00' W 005°27'3 6.2
2018-Jul-16 23:00N 36°01' W 005°23'3 5.3
2018-Jul-16 22:30N 36°02' W 005°20'3 5.1
2018-Jul-16 22:00N 36°02' W 005°17'3 5.6
2018-Jul-16 21:30N 36°02' W 005°13'4 7.0
2018-Jul-16 21:00N 36°03' W 005°09'4 7.7
2018-Jul-16 20:27N 36°04' W 005°04'  
2018-Jul-14 10:10N 36°01' W 004°59'313.2
2018-Jul-14 09:57N 36°01' W 005°03'612.8
2018-Jul-14 09:30N 35°60' W 005°10'612.5
2018-Jul-14 09:00N 35°59' W 005°17'713.2
2018-Jul-14 08:30N 35°58' W 005°25'2813.4
2018-Jul-14 06:24N 35°55' W 005°60'3510.0
2018-Jul-14 02:56N 36°22' W 006°27'511.4
2018-Jul-14 02:30N 36°26' W 006°29'711.5
2018-Jul-14 01:55N 36°33' W 006°32'  
2018-Jul-11 16:37N 36°46' W 006°28'1 4.3
2018-Jul-11 16:22N 36°46' W 006°30'4 9.7
2018-Jul-11 15:54N 36°46' W 006°35'410.2
2018-Jul-11 15:30N 36°45' W 006°40'13310.1
2018-Jul-11 02:23N 36°42' W 009°26'410.5
2018-Jul-11 02:00N 36°45' W 009°29'510.0
2018-Jul-11 01:29N 36°50' W 009°32'510.2
2018-Jul-11 01:00N 36°55' W 009°34'510.3
2018-Jul-11 00:30N 36°60' W 009°35'610.4
2018-Jul-10 23:54N 37°06' W 009°37'410.6
2018-Jul-10 23:29N 37°10' W 009°38'510.6
2018-Jul-10 23:00N 37°15' W 009°40'610.5
2018-Jul-10 22:28N 37°20' W 009°41'510.5
2018-Jul-10 21:59N 37°25' W 009°42'510.5
2018-Jul-10 21:30N 37°30' W 009°44'510.8
2018-Jul-10 21:00N 37°36' W 009°46'510.7
2018-Jul-10 20:30N 37°41' W 009°47'510.7
2018-Jul-10 20:00N 37°46' W 009°49'510.7
2018-Jul-10 19:29N 37°51' W 009°50'510.4
2018-Jul-10 19:00N 37°56' W 009°51'510.3
2018-Jul-10 18:30N 38°01' W 009°53'510.4
2018-Jul-10 18:00N 38°06' W 009°54'510.1
2018-Jul-10 17:30N 38°11' W 009°56'510.3
2018-Jul-10 17:00N 38°16' W 009°57'510.5
2018-Jul-10 16:30N 38°22' W 009°59'510.6
2018-Jul-10 16:00N 38°27' W 010°00'510.3
2018-Jul-10 15:30N 38°32' W 010°02'510.1
2018-Jul-10 15:00N 38°37' W 010°04'510.0
2018-Jul-10 14:30N 38°41' W 010°05'510.0
2018-Jul-10 14:00N 38°46' W 010°06'510.2
2018-Jul-10 13:30N 38°51' W 010°05'510.3
2018-Jul-10 13:00N 38°57' W 010°05'510.2
2018-Jul-10 12:30N 39°02' W 010°05'7 9.8
2018-Jul-10 11:50N 39°08' W 010°05'310.0
2018-Jul-10 11:30N 39°12' W 010°05'510.3
2018-Jul-10 11:00N 39°17' W 010°06'510.5
2018-Jul-10 10:29N 39°22' W 010°06'3610.2
2018-Jul-10 06:56N 39°58' W 010°05'7 9.3
2018-Jul-10 06:14N 40°05' W 010°05'2 9.4
2018-Jul-10 05:59N 40°07' W 010°05'  
2018-Jul-08 01:40N 48°18' W 006°14'510.7
2018-Jul-08 01:14N 48°22' W 006°10'210.8
2018-Jul-08 01:00N 48°24' W 006°09'510.5
2018-Jul-08 00:30N 48°29' W 006°05'510.1
2018-Jul-08 00:00N 48°34' W 006°01'510.4
2018-Jul-07 23:30N 48°38' W 005°57'510.0
2018-Jul-07 23:00N 48°43' W 005°54'5 9.6
2018-Jul-07 22:30N 48°47' W 005°51'5 9.8
2018-Jul-07 22:00N 48°51' W 005°47'5 9.3
2018-Jul-07 21:30N 48°54' W 005°42'5 9.7
2018-Jul-07 21:00N 48°57' W 005°36'5 9.8
2018-Jul-07 20:30N 49°00' W 005°30'5 9.9
2018-Jul-07 20:00N 49°03' W 005°24'510.2
2018-Jul-07 19:30N 49°05' W 005°17'510.5
2018-Jul-07 19:00N 49°08' W 005°10'910.5
2018-Jul-07 18:10N 49°12' W 004°58'210.9
2018-Jul-07 18:00N 49°13' W 004°56'4610.6
2018-Jul-07 13:41N 49°36' W 003°55'4 9.7
2018-Jul-07 13:17N 49°38' W 003°50'18 9.4
2018-Jul-07 11:25N 49°46' W 003°26'4 9.8
2018-Jul-07 10:58N 49°49' W 003°20'510.2
2018-Jul-07 10:30N 49°51' W 003°14'510.5
2018-Jul-07 09:59N 49°54' W 003°06'510.7
2018-Jul-07 09:30N 49°56' W 002°59'611.0
2018-Jul-07 09:00N 49°58' W 002°51'611.5
2018-Jul-07 08:30N 49°60' W 002°43'611.9
2018-Jul-07 08:00N 50°01' W 002°34'611.8
2018-Jul-07 07:30N 50°02' W 002°25'611.5
2018-Jul-07 06:58N 49°60' W 002°15'511.7
2018-Jul-07 06:30N 49°58' W 002°07'611.3
2018-Jul-07 05:58N 49°57' W 001°58'510.9
2018-Jul-07 05:28N 49°55' W 001°50'510.6
2018-Jul-07 05:00N 49°54' W 001°43'510.0
2018-Jul-07 04:30N 49°52' W 001°35'5 9.5
2018-Jul-07 04:00N 49°51' W 001°28'4 8.7
2018-Jul-07 03:30N 49°50' W 001°22'4 7.5
2018-Jul-07 03:00N 49°48' W 001°17'4 7.3
2018-Jul-07 02:30N 49°46' W 001°12'4 7.6
2018-Jul-07 02:00N 49°46' W 001°06'4 7.5
2018-Jul-07 01:30N 49°44' W 001°01'  

Dump ship's entire track history